Terminal Aerodrome Forecast
Issued by NWS

Home | Current Version | Previous Version | Graphics & Text | Print | Product List | Glossary On
Versions: 1 2 3 4 5 6 7 8 9 10 11 12 13 14 15 16 17 18
000
FTUS43 KGRB 212320
TAFATW
TAF
KATW 212320Z 2200/2224 35011G18KT P6SM SCT050
     FM220200 01008KT P6SM SKC
     FM221400 05005KT P6SM SCT250
     FM222000 13007KT P6SM BKN150=

USA.gov is the U.S. government's official web portal to all federal, state and local government web resources and services.